createdAt,value
2022-10-28T00:01:21.584Z,15.55
2022-10-28T00:03:50.956Z,15.52
2022-10-28T00:06:20.470Z,15.52
2022-10-28T00:08:47.871Z,15.41
2022-10-28T00:11:16.587Z,15.45
2022-10-28T00:14:05.540Z,15.47
2022-10-28T00:16:52.167Z,15.53
2022-10-28T00:19:38.520Z,15.50
2022-10-28T00:22:25.216Z,15.49
2022-10-28T00:25:11.642Z,15.53
2022-10-28T00:27:58.069Z,15.47
2022-10-28T00:30:24.517Z,15.51
2022-10-28T00:32:51.318Z,15.47
2022-10-28T00:35:18.174Z,15.49
2022-10-28T00:37:44.736Z,15.50
2022-10-28T00:40:11.786Z,15.46
2022-10-28T00:42:38.162Z,15.45
2022-10-28T00:45:05.646Z,15.43
2022-10-28T00:47:42.691Z,15.48
2022-10-28T00:50:22.833Z,15.45
2022-10-28T00:52:55.614Z,15.38
2022-10-28T00:55:23.175Z,15.35
2022-10-28T00:57:51.184Z,15.42
2022-10-28T01:00:18.272Z,15.47
2022-10-28T01:02:48.039Z,15.45
2022-10-28T01:05:18.994Z,15.44
2022-10-28T01:07:45.447Z,15.47
2022-10-28T01:10:14.751Z,15.50
2022-10-28T01:13:06.470Z,15.51
2022-10-28T01:15:46.350Z,15.48
2022-10-28T01:18:54.319Z,15.55
2022-10-28T01:21:45.325Z,15.50
2022-10-28T01:24:35.547Z,15.58
2022-10-28T01:27:12.962Z,15.57
2022-10-28T01:29:54.623Z,15.59
2022-10-28T01:32:32.028Z,15.56
2022-10-28T01:35:14.807Z,15.55
2022-10-28T01:38:14.940Z,15.61
2022-10-28T01:41:08.302Z,15.65
2022-10-28T01:43:50.151Z,15.64
2022-10-28T01:46:24.769Z,15.67
2022-10-28T01:48:58.816Z,15.67
2022-10-28T01:51:44.723Z,15.68
2022-10-28T01:54:16.255Z,15.71
2022-10-28T01:56:46.724Z,15.61
2022-10-28T01:59:20.337Z,15.59
2022-10-28T02:01:47.235Z,15.55
2022-10-28T02:04:14.239Z,15.59
2022-10-28T02:06:43.927Z,15.59
2022-10-28T02:09:20.590Z,15.65
2022-10-28T02:12:24.796Z,15.70
2022-10-28T02:17:40.255Z,15.77
2022-10-28T02:20:26.264Z,15.82
2022-10-28T02:23:01.600Z,15.85
2022-10-28T02:25:43.396Z,15.91
2022-10-28T02:28:15.632Z,15.93
2022-10-28T02:30:57.895Z,15.95
2022-10-28T02:33:29.264Z,15.91
2022-10-28T02:36:06.410Z,15.91
2022-10-28T02:38:40.163Z,15.87
2022-10-28T02:41:15.641Z,15.82
2022-10-28T02:43:43.984Z,15.81
2022-10-28T02:46:13.262Z,15.77
2022-10-28T02:48:52.648Z,15.81
2022-10-28T02:51:30.327Z,15.85
2022-10-28T02:54:17.650Z,15.86
2022-10-28T02:56:54.651Z,15.83
2022-10-28T02:59:24.844Z,15.83
2022-10-28T03:01:51.559Z,15.82
2022-10-28T03:04:17.971Z,15.86
2022-10-28T03:06:44.461Z,15.84
2022-10-28T03:09:10.823Z,15.86
2022-10-28T03:11:37.536Z,15.88
2022-10-28T03:14:04.325Z,15.92
2022-10-28T03:16:30.921Z,15.96
2022-10-28T03:18:57.409Z,16.00
2022-10-28T03:21:24.106Z,15.96
2022-10-28T03:23:50.992Z,16.01
2022-10-28T03:26:18.006Z,16.01
2022-10-28T03:28:44.602Z,15.99
2022-10-28T03:31:12.236Z,16.04
2022-10-28T03:33:38.592Z,16.09
2022-10-28T03:36:05.450Z,16.13
2022-10-28T03:38:32.361Z,16.19
2022-10-28T03:40:59.263Z,16.24
2022-10-28T03:43:25.650Z,16.32
2022-10-28T03:45:52.495Z,16.39
2022-10-28T03:48:19.419Z,16.49
2022-10-28T03:50:45.789Z,16.50
2022-10-28T03:53:12.604Z,16.57
2022-10-28T03:55:39.190Z,16.60
2022-10-28T03:58:05.776Z,16.71
2022-10-28T04:00:32.248Z,16.70
2022-10-28T04:02:59.168Z,16.70
2022-10-28T04:05:25.547Z,16.73
2022-10-28T04:07:54.224Z,16.78
2022-10-28T04:10:20.628Z,16.77
2022-10-28T04:12:47.457Z,16.76
2022-10-28T04:15:13.938Z,16.70
2022-10-28T04:17:40.646Z,16.63
2022-10-28T04:20:07.802Z,16.69
2022-10-28T04:22:34.554Z,16.73
2022-10-28T04:25:00.979Z,16.78
2022-10-28T04:27:27.358Z,16.80
2022-10-28T04:29:54.245Z,16.85
2022-10-28T04:32:20.603Z,16.87
2022-10-28T04:34:47.559Z,16.80
2022-10-28T04:37:17.006Z,16.76
2022-10-28T04:39:47.119Z,16.75
2022-10-28T04:42:13.642Z,16.80
2022-10-28T04:44:40.323Z,16.73
2022-10-28T04:47:06.986Z,16.72
2022-10-28T04:49:36.663Z,16.72
2022-10-28T04:52:05.418Z,16.66
2022-10-28T04:54:32.082Z,16.60
2022-10-28T04:56:58.467Z,16.63
2022-10-28T04:59:25.376Z,16.65
2022-10-28T05:01:51.811Z,16.63
2022-10-28T05:04:18.340Z,16.53
2022-10-28T05:06:45.128Z,16.49
2022-10-28T05:09:12.428Z,16.44
2022-10-28T05:11:38.828Z,16.29
2022-10-28T05:14:05.509Z,16.20
2022-10-28T05:16:32.147Z,16.08
2022-10-28T05:18:58.839Z,16.05
2022-10-28T05:21:25.562Z,16.03
2022-10-28T05:23:52.055Z,16.07
2022-10-28T05:26:18.543Z,16.01
2022-10-28T05:28:49.312Z,15.97
2022-10-28T05:31:16.301Z,15.87
2022-10-28T05:33:42.698Z,15.89
2022-10-28T05:36:09.459Z,15.93
2022-10-28T05:38:35.901Z,15.86
2022-10-28T05:41:03.564Z,15.81
2022-10-28T05:43:29.978Z,15.81
2022-10-28T05:45:57.646Z,15.71
2022-10-28T05:48:25.001Z,15.68
2022-10-28T05:50:51.570Z,15.69
2022-10-28T05:53:18.445Z,15.48
2022-10-28T05:55:47.626Z,15.44
2022-10-28T05:58:15.085Z,15.43
2022-10-28T06:00:41.782Z,15.47
2022-10-28T06:03:11.950Z,15.41
2022-10-28T06:05:42.117Z,15.50
2022-10-28T06:08:10.203Z,15.57
2022-10-28T06:10:37.214Z,15.58
2022-10-28T06:13:02.599Z,15.63
2022-10-28T06:15:29.234Z,15.75
2022-10-28T06:17:56.372Z,15.79
2022-10-28T06:20:22.812Z,15.76
2022-10-28T06:22:51.088Z,15.77
2022-10-28T06:25:19.650Z,15.85
2022-10-28T06:27:57.028Z,15.92
2022-10-28T06:30:25.291Z,15.88
2022-10-28T06:32:54.383Z,15.99
2022-10-28T06:35:21.082Z,16.08
2022-10-28T06:37:52.592Z,16.18
2022-10-28T06:40:19.509Z,16.23
2022-10-28T06:42:45.873Z,16.21
2022-10-28T06:45:12.440Z,16.32
2022-10-28T06:47:41.594Z,16.42
2022-10-28T06:50:08.956Z,16.39
2022-10-28T06:52:35.463Z,16.34
2022-10-28T06:55:02.178Z,16.13
2022-10-28T06:57:29.374Z,16.00
2022-10-28T06:59:55.924Z,15.97
2022-10-28T07:02:22.793Z,15.82
2022-10-28T07:04:49.302Z,15.85
2022-10-28T07:07:16.034Z,15.85
2022-10-28T07:09:44.522Z,15.84
2022-10-28T07:12:10.979Z,15.88
2022-10-28T07:14:37.729Z,15.95
2022-10-28T07:17:04.434Z,15.94
2022-10-28T07:19:31.311Z,15.92
2022-10-28T07:21:58.090Z,16.02
2022-10-28T07:24:24.561Z,16.00
2022-10-28T07:26:53.103Z,15.94
2022-10-28T07:29:22.082Z,15.82
2022-10-28T07:31:48.455Z,15.90
2022-10-28T07:34:15.500Z,15.88
2022-10-28T07:36:42.129Z,15.93
2022-10-28T07:39:10.064Z,15.98
2022-10-28T07:41:37.312Z,16.04
2022-10-28T07:44:03.827Z,16.06
2022-10-28T07:46:30.720Z,16.10
2022-10-28T07:48:57.108Z,16.06
2022-10-28T07:51:23.505Z,15.98
2022-10-28T07:53:49.878Z,16.03
2022-10-28T07:56:16.532Z,16.16
2022-10-28T07:58:44.797Z,16.23
2022-10-28T08:01:13.704Z,16.23
2022-10-28T08:03:40.247Z,16.27
2022-10-28T08:06:17.498Z,16.28
2022-10-28T08:08:45.235Z,16.28
2022-10-28T08:11:16.600Z,16.30
2022-10-28T08:13:43.559Z,16.35
2022-10-28T08:16:10.567Z,16.33
2022-10-28T08:18:38.611Z,16.32
2022-10-28T08:21:07.328Z,16.38
2022-10-28T08:23:34.215Z,16.43
2022-10-28T08:26:01.249Z,16.45
2022-10-28T08:28:27.750Z,16.47
2022-10-28T08:31:08.359Z,16.50
2022-10-28T08:33:37.912Z,16.61
2022-10-28T08:36:05.065Z,16.72
2022-10-28T08:38:31.497Z,16.85
2022-10-28T08:41:25.896Z,17.01
2022-10-28T08:44:04.665Z,17.19
2022-10-28T08:46:37.576Z,17.31
2022-10-28T08:49:11.972Z,17.46
2022-10-28T08:51:45.263Z,17.48
2022-10-28T08:54:24.169Z,17.57
2022-10-28T08:56:51.909Z,17.70
2022-10-28T08:59:29.807Z,17.79
2022-10-28T09:02:03.773Z,17.81
2022-10-28T09:04:43.351Z,17.99
2022-10-28T09:07:22.274Z,18.00
2022-10-28T09:09:50.488Z,18.10
2022-10-28T09:12:40.627Z,18.19
2022-10-28T09:15:22.715Z,18.30
2022-10-28T09:17:54.721Z,18.31
2022-10-28T09:20:48.352Z,18.39
2022-10-28T09:23:22.636Z,18.49
2022-10-28T09:26:02.202Z,18.55
2022-10-28T09:28:53.521Z,18.68
2022-10-28T09:31:47.411Z,18.72
2022-10-28T09:34:23.881Z,18.77
2022-10-28T09:37:14.093Z,18.83
2022-10-28T09:39:55.166Z,18.91
2022-10-28T09:42:27.396Z,18.99
2022-10-28T09:45:06.232Z,18.98
2022-10-28T09:47:43.239Z,19.04
2022-10-28T09:50:17.318Z,19.02
2022-10-28T09:52:59.182Z,19.24
2022-10-28T09:55:25.791Z,19.73
2022-10-28T09:57:52.602Z,19.96
2022-10-28T10:00:19.449Z,20.23
2022-10-28T10:02:45.993Z,20.61
2022-10-28T10:05:17.006Z,20.72
2022-10-28T10:08:17.863Z,20.52
2022-10-28T10:11:04.044Z,21.23
2022-10-28T10:13:41.291Z,21.29
2022-10-28T10:16:40.999Z,21.58
2022-10-28T10:19:11.477Z,21.62
2022-10-28T10:21:51.100Z,21.57
2022-10-28T10:24:31.271Z,21.76
2022-10-28T10:27:12.193Z,22.19
2022-10-28T10:29:45.459Z,22.33
2022-10-28T10:32:19.616Z,22.06
2022-10-28T10:35:02.266Z,21.80
2022-10-28T10:37:36.104Z,22.22
2022-10-28T10:40:08.085Z,22.36
2022-10-28T10:42:39.258Z,22.52
2022-10-28T10:45:14.928Z,22.45
2022-10-28T10:47:42.144Z,22.00
2022-10-28T10:50:29.375Z,22.46
2022-10-28T10:52:59.306Z,22.52
2022-10-28T10:55:38.921Z,22.41
2022-10-28T10:58:07.345Z,22.64
2022-10-28T11:00:44.467Z,22.64
2022-10-28T11:03:19.012Z,22.77
2022-10-28T11:06:05.342Z,22.75
2022-10-28T11:08:41.265Z,23.11
2022-10-28T11:11:20.078Z,23.05
2022-10-28T11:13:48.610Z,23.28
2022-10-28T11:16:22.007Z,23.07
2022-10-28T11:18:51.552Z,23.33
2022-10-28T11:21:36.897Z,23.55
2022-10-28T11:24:28.019Z,23.65
2022-10-28T11:27:15.847Z,24.05
2022-10-28T11:29:42.571Z,23.72
2022-10-28T11:32:54.638Z,24.25
2022-10-28T11:35:56.478Z,24.10
2022-10-28T11:38:34.467Z,24.07
2022-10-28T11:41:10.093Z,24.29
2022-10-28T11:44:00.867Z,24.61
2022-10-28T11:46:40.881Z,24.71
2022-10-28T11:49:32.354Z,24.17
2022-10-28T11:52:01.942Z,24.17
2022-10-28T11:54:43.027Z,24.18
2022-10-28T11:57:14.905Z,24.71
2022-10-28T12:00:00.197Z,24.85
2022-10-28T12:02:37.771Z,24.68
2022-10-28T12:05:23.600Z,24.72
2022-10-28T12:08:11.273Z,24.66
2022-10-28T12:10:58.771Z,24.94
2022-10-28T12:16:44.075Z,24.79
2022-10-28T12:19:26.858Z,24.92
2022-10-28T12:22:11.640Z,24.44
2022-10-28T12:24:40.965Z,24.52
2022-10-28T12:27:18.050Z,24.44
2022-10-28T12:29:51.497Z,24.68
2022-10-28T12:32:23.197Z,25.07
2022-10-28T12:35:07.837Z,24.91
2022-10-28T12:37:42.123Z,25.47
2022-10-28T12:40:20.539Z,25.32
2022-10-28T12:42:58.987Z,25.72
2022-10-28T12:45:26.534Z,26.09
2022-10-28T12:48:15.103Z,25.32
2022-10-28T12:50:51.970Z,24.78
2022-10-28T12:53:34.569Z,24.47
2022-10-28T12:56:03.176Z,24.61
2022-10-28T12:58:41.905Z,24.15
2022-10-28T13:01:12.680Z,24.59
2022-10-28T13:03:39.974Z,24.92
2022-10-28T13:06:09.430Z,24.86
2022-10-28T13:08:38.788Z,24.76
2022-10-28T13:11:21.134Z,24.85
2022-10-28T13:14:16.161Z,25.55
2022-10-28T13:16:42.774Z,25.80
2022-10-28T13:19:24.410Z,25.89
2022-10-28T13:22:15.987Z,25.25
2022-10-28T13:24:58.254Z,25.50
2022-10-28T13:27:25.976Z,25.49
2022-10-28T13:29:56.150Z,25.21
2022-10-28T13:32:41.507Z,25.06
2022-10-28T13:35:13.102Z,24.97
2022-10-28T13:37:40.755Z,25.08
2022-10-28T13:40:32.585Z,24.83
2022-10-28T13:43:01.100Z,24.65
2022-10-28T13:45:49.505Z,24.54
2022-10-28T13:48:28.946Z,24.26
2022-10-28T13:51:11.107Z,24.46
2022-10-28T13:53:46.817Z,24.69
2022-10-28T13:56:26.747Z,24.68
2022-10-28T13:59:03.437Z,24.65
2022-10-28T14:02:01.441Z,24.49
2022-10-28T14:04:39.125Z,24.24
2022-10-28T14:07:08.520Z,24.29
2022-10-28T14:09:36.690Z,24.39
2022-10-28T14:12:17.376Z,24.38
2022-10-28T14:15:17.836Z,24.34
2022-10-28T14:17:49.337Z,24.49
2022-10-28T14:20:26.923Z,24.52
2022-10-28T14:22:54.566Z,24.71
2022-10-28T14:25:59.842Z,24.45
2022-10-28T14:28:32.493Z,24.53
2022-10-28T14:31:11.474Z,24.24
2022-10-28T14:33:54.765Z,24.06
2022-10-28T14:36:33.997Z,24.06
2022-10-28T14:39:04.032Z,23.99
2022-10-28T14:42:01.980Z,24.27
2022-10-28T14:44:47.452Z,24.15
2022-10-28T14:47:46.714Z,24.16
2022-10-28T14:50:21.148Z,23.95
2022-10-28T14:52:50.457Z,24.00
2022-10-28T14:55:30.039Z,24.06
2022-10-28T14:58:22.834Z,24.10
2022-10-28T15:01:22.879Z,24.10
2022-10-28T15:04:02.151Z,24.13
2022-10-28T15:06:39.250Z,24.02
2022-10-28T15:09:17.750Z,24.03
2022-10-28T15:11:49.193Z,23.95
2022-10-28T15:14:25.313Z,23.86
2022-10-28T15:16:52.552Z,23.81
2022-10-28T15:19:21.976Z,23.74
2022-10-28T15:22:07.349Z,23.72
2022-10-28T15:24:34.097Z,23.79
2022-10-28T15:27:00.588Z,23.78
2022-10-28T15:29:27.366Z,23.51
2022-10-28T15:32:23.155Z,23.39
2022-10-28T15:34:50.233Z,23.38
2022-10-28T15:37:25.213Z,23.35
2022-10-28T15:40:12.374Z,23.29
2022-10-28T15:42:42.303Z,23.18
2022-10-28T15:45:23.743Z,23.20
2022-10-28T15:47:50.674Z,23.14
2022-10-28T15:50:17.058Z,23.04
2022-10-28T15:52:48.182Z,23.05
2022-10-28T15:55:35.838Z,23.02
2022-10-28T15:58:18.081Z,22.96
2022-10-28T16:00:53.953Z,22.82
2022-10-28T16:03:41.654Z,22.81
2022-10-28T16:06:36.991Z,22.77
2022-10-28T16:09:32.212Z,22.72
2022-10-28T16:12:02.109Z,22.72
2022-10-28T16:14:41.861Z,22.72
2022-10-28T16:17:27.223Z,22.66
2022-10-28T16:20:26.916Z,22.57
2022-10-28T16:22:53.935Z,22.55
2022-10-28T16:25:22.121Z,22.51
2022-10-28T16:27:50.778Z,22.52
2022-10-28T16:30:17.914Z,22.48
2022-10-28T16:32:48.105Z,22.50
2022-10-28T16:35:16.225Z,22.44
2022-10-28T16:37:45.801Z,22.40
2022-10-28T16:43:01.392Z,22.29
2022-10-28T16:45:28.165Z,22.25
2022-10-28T16:47:55.168Z,22.13
2022-10-28T16:50:21.950Z,22.08
2022-10-28T16:52:48.577Z,22.02
2022-10-28T16:55:19.442Z,21.92
2022-10-28T16:57:45.858Z,21.92
2022-10-28T17:00:15.734Z,21.88
2022-10-28T17:02:42.664Z,21.94
2022-10-28T17:05:20.238Z,21.90
2022-10-28T17:07:47.286Z,21.88
2022-10-28T17:10:14.305Z,21.94
2022-10-28T17:12:41.066Z,21.85
2022-10-28T17:15:09.849Z,21.78
2022-10-28T17:17:36.290Z,21.74
2022-10-28T17:20:04.275Z,21.70
2022-10-28T17:22:30.955Z,21.72
2022-10-28T17:24:57.589Z,21.67
2022-10-28T17:27:24.053Z,21.64
2022-10-28T17:29:50.734Z,21.63
2022-10-28T17:32:17.216Z,21.64
2022-10-28T17:34:43.583Z,21.60
2022-10-28T17:37:10.403Z,21.66
2022-10-28T17:39:37.754Z,21.62
2022-10-28T17:42:04.206Z,21.59
2022-10-28T17:44:30.790Z,21.55
2022-10-28T17:46:57.379Z,21.49
2022-10-28T17:49:24.031Z,21.45
2022-10-28T17:51:51.667Z,21.39
2022-10-28T17:54:18.139Z,21.36
2022-10-28T17:56:45.226Z,21.33
2022-10-28T17:59:12.081Z,21.29
2022-10-28T18:01:38.605Z,21.20
2022-10-28T18:04:05.968Z,21.15
2022-10-28T18:06:32.692Z,21.07
2022-10-28T18:08:59.079Z,20.99
2022-10-28T18:11:27.216Z,20.99
2022-10-28T18:13:55.774Z,21.01
2022-10-28T18:16:24.199Z,20.90
2022-10-28T18:18:51.711Z,20.80
2022-10-28T18:21:18.212Z,20.67
2022-10-28T18:23:44.833Z,20.45
2022-10-28T18:26:15.861Z,20.43
2022-10-28T18:28:43.755Z,20.30
2022-10-28T18:31:15.683Z,20.26
2022-10-28T18:33:43.279Z,20.25
2022-10-28T18:36:18.632Z,20.18
2022-10-28T18:38:45.282Z,20.04
2022-10-28T18:41:14.770Z,19.99
2022-10-28T18:43:41.893Z,20.00
2022-10-28T18:46:08.398Z,19.90
2022-10-28T18:48:35.120Z,19.91
2022-10-28T18:51:07.437Z,19.87
2022-10-28T18:53:38.977Z,19.73
2022-10-28T18:56:08.036Z,19.60
2022-10-28T18:58:34.834Z,19.58
2022-10-28T19:01:11.638Z,19.53
2022-10-28T19:03:38.935Z,19.48
2022-10-28T19:06:11.547Z,19.45
2022-10-28T19:08:39.339Z,19.37
2022-10-28T19:11:07.087Z,19.26
2022-10-28T19:13:38.847Z,19.26
2022-10-28T19:16:05.643Z,19.31
2022-10-28T19:18:35.623Z,19.23
2022-10-28T19:21:12.383Z,19.14
2022-10-28T19:23:40.042Z,19.14
2022-10-28T19:26:07.915Z,19.09
2022-10-28T19:28:39.455Z,19.07
2022-10-28T19:31:09.089Z,19.04
2022-10-28T19:33:38.225Z,19.00
2022-10-28T19:36:18.865Z,18.95
2022-10-28T19:38:46.902Z,18.95
2022-10-28T19:41:18.715Z,18.88
2022-10-28T19:43:45.453Z,18.81
2022-10-28T19:46:16.649Z,18.74
2022-10-28T19:48:48.064Z,18.66
2022-10-28T19:51:23.692Z,18.62
2022-10-28T19:53:58.569Z,18.58
2022-10-28T19:56:25.719Z,18.54
2022-10-28T19:58:55.415Z,18.52
2022-10-28T20:01:23.692Z,18.44
2022-10-28T20:03:51.558Z,18.34
2022-10-28T20:06:20.396Z,18.36
2022-10-28T20:08:48.222Z,18.28
2022-10-28T20:11:23.096Z,18.29
2022-10-28T20:13:57.712Z,18.20
2022-10-28T20:16:25.784Z,18.19
2022-10-28T20:18:54.861Z,18.17
2022-10-28T20:21:23.439Z,18.15
2022-10-28T20:23:55.227Z,18.07
2022-10-28T20:26:25.998Z,18.04
2022-10-28T20:28:52.625Z,18.02
2022-10-28T20:31:22.445Z,17.98
2022-10-28T20:33:51.338Z,18.00
2022-10-28T20:36:24.979Z,17.96
2022-10-28T20:38:56.431Z,17.96
2022-10-28T20:41:24.419Z,17.91
2022-10-28T20:43:51.905Z,17.93
2022-10-28T20:46:20.336Z,17.88
2022-10-28T20:48:48.632Z,17.84
2022-10-28T20:51:15.732Z,17.87
2022-10-28T20:53:42.450Z,17.84
2022-10-28T20:56:16.548Z,17.75
2022-10-28T20:58:42.906Z,17.68
2022-10-28T21:01:18.803Z,17.72
2022-10-28T21:03:46.148Z,17.72
2022-10-28T21:06:15.465Z,17.73
2022-10-28T21:08:42.822Z,17.70
2022-10-28T21:11:13.442Z,17.64
2022-10-28T21:13:40.672Z,17.61
2022-10-28T21:16:09.321Z,17.61
2022-10-28T21:18:37.403Z,17.61
2022-10-28T21:21:04.586Z,17.52
2022-10-28T21:23:31.654Z,17.50
2022-10-28T21:26:03.651Z,17.48
2022-10-28T21:28:32.307Z,17.45
2022-10-28T21:31:04.011Z,17.44
2022-10-28T21:33:31.008Z,17.40
2022-10-28T21:35:59.625Z,17.37
2022-10-28T21:38:27.735Z,17.34
2022-10-28T21:41:01.234Z,17.28
2022-10-28T21:43:30.260Z,17.30
2022-10-28T21:45:56.774Z,17.22
2022-10-28T21:48:24.393Z,17.21
2022-10-28T21:50:52.831Z,17.18
2022-10-28T21:53:19.934Z,17.13
2022-10-28T21:55:49.021Z,17.13
2022-10-28T21:58:17.738Z,17.07
2022-10-28T22:00:44.857Z,17.05
2022-10-28T22:03:13.052Z,17.10
2022-10-28T22:05:39.655Z,17.05
2022-10-28T22:08:06.081Z,17.03
2022-10-28T22:10:32.703Z,16.99
2022-10-28T22:12:59.098Z,16.99
2022-10-28T22:15:25.785Z,16.94
2022-10-28T22:17:52.422Z,16.84
2022-10-28T22:20:19.073Z,16.73
2022-10-28T22:22:45.769Z,16.68
2022-10-28T22:25:12.372Z,16.72
2022-10-28T22:27:39.071Z,16.70
2022-10-28T22:30:06.229Z,16.65
2022-10-28T22:32:32.902Z,16.62
2022-10-28T22:34:59.290Z,16.60
2022-10-28T22:37:25.660Z,16.55
2022-10-28T22:39:52.282Z,16.53
2022-10-28T22:42:18.678Z,16.51
2022-10-28T22:44:45.393Z,16.46
2022-10-28T22:47:12.182Z,16.41
2022-10-28T22:49:38.556Z,16.42
2022-10-28T22:52:05.300Z,16.42
2022-10-28T22:54:31.972Z,16.36
2022-10-28T22:56:58.659Z,16.35
2022-10-28T22:59:25.682Z,16.33
2022-10-28T23:01:52.618Z,16.30
2022-10-28T23:04:19.070Z,16.31
2022-10-28T23:06:45.893Z,16.28
2022-10-28T23:09:12.848Z,16.21
2022-10-28T23:11:39.256Z,16.16
2022-10-28T23:14:05.702Z,16.17
2022-10-28T23:16:32.103Z,16.09
2022-10-28T23:19:01.006Z,16.14
2022-10-28T23:21:28.114Z,16.11
2022-10-28T23:23:59.853Z,16.17
2022-10-28T23:26:28.332Z,16.19
2022-10-28T23:28:59.735Z,16.15
2022-10-28T23:31:26.963Z,16.16
2022-10-28T23:33:54.657Z,16.13
2022-10-28T23:36:21.566Z,16.15
2022-10-28T23:38:48.240Z,16.20
2022-10-28T23:41:18.437Z,16.23
2022-10-28T23:43:45.763Z,16.25
2022-10-28T23:46:12.510Z,16.25
2022-10-28T23:48:39.249Z,16.28
2022-10-28T23:51:06.421Z,16.28
2022-10-28T23:53:33.183Z,16.30
2022-10-28T23:55:59.570Z,16.30
2022-10-28T23:58:27.013Z,16.28
